createdAt,value
2019-05-22T00:01:41.607Z,87.90
2019-05-22T00:04:27.986Z,87.20
2019-05-22T00:07:06.324Z,86.25
2019-05-22T00:09:42.534Z,86.83
2019-05-22T00:12:19.327Z,86.98
2019-05-22T00:14:54.556Z,87.25
2019-05-22T00:17:34.351Z,86.72
2019-05-22T00:20:10.728Z,86.60
2019-05-22T00:22:47.636Z,86.26
2019-05-22T00:25:25.032Z,87.00
2019-05-22T00:28:00.619Z,86.82
2019-05-22T00:30:39.460Z,86.99
2019-05-22T00:33:14.556Z,86.70
2019-05-22T00:35:50.141Z,87.18
2019-05-22T00:38:27.308Z,86.77
2019-05-22T00:41:08.063Z,87.05
2019-05-22T00:43:44.784Z,86.71
2019-05-22T00:46:20.806Z,86.90
2019-05-22T00:48:57.849Z,86.77
2019-05-22T00:51:49.633Z,86.79
2019-05-22T00:54:45.405Z,87.12
2019-05-22T00:57:27.093Z,87.66
2019-05-22T01:00:19.933Z,87.21
2019-05-22T01:02:56.420Z,87.80
2019-05-22T01:05:31.371Z,86.64
2019-05-22T01:08:08.717Z,86.86
2019-05-22T01:10:49.965Z,86.95
2019-05-22T01:13:26.316Z,87.08
2019-05-22T01:16:02.073Z,87.07
2019-05-22T01:18:38.645Z,86.70
2019-05-22T01:21:22.033Z,86.59
2019-05-22T01:24:00.645Z,86.63
2019-05-22T01:26:36.342Z,86.23
2019-05-22T01:29:12.048Z,86.83
2019-05-22T01:31:54.046Z,87.04
2019-05-22T01:34:35.521Z,86.67
2019-05-22T01:37:14.868Z,86.95
2019-05-22T01:40:02.379Z,87.17
2019-05-22T01:42:43.247Z,86.87
2019-05-22T01:45:18.776Z,87.62
2019-05-22T01:48:02.967Z,87.70
2019-05-22T01:50:55.785Z,87.99
2019-05-22T01:53:38.786Z,87.41
2019-05-22T01:56:16.517Z,87.87
2019-05-22T01:58:52.830Z,88.26
2019-05-22T02:01:27.537Z,87.71
2019-05-22T02:04:02.437Z,87.38
2019-05-22T02:06:39.608Z,87.67
2019-05-22T02:09:41.271Z,86.94
2019-05-22T02:12:31.914Z,86.98
2019-05-22T02:15:08.012Z,86.99
2019-05-22T02:17:42.956Z,87.08
2019-05-22T02:20:20.151Z,87.44
2019-05-22T02:22:54.755Z,87.16
2019-05-22T02:25:29.264Z,87.91
2019-05-22T02:28:04.213Z,87.64
2019-05-22T02:30:40.739Z,87.62
2019-05-22T02:33:18.679Z,88.23
2019-05-22T02:35:54.227Z,88.87
2019-05-22T02:38:29.799Z,87.58
2019-05-22T02:41:04.829Z,88.17
2019-05-22T02:43:39.632Z,88.01
2019-05-22T02:46:14.602Z,87.83
2019-05-22T02:48:49.331Z,88.05
2019-05-22T02:51:23.074Z,87.56
2019-05-22T02:54:00.687Z,86.36
2019-05-22T02:56:36.345Z,86.79
2019-05-22T02:59:13.957Z,87.31
2019-05-22T03:01:48.496Z,87.18
2019-05-22T03:04:23.529Z,87.62
2019-05-22T03:06:57.324Z,87.43
2019-05-22T03:09:34.114Z,87.87
2019-05-22T03:12:12.198Z,88.06
2019-05-22T03:14:47.750Z,88.76
2019-05-22T03:17:33.752Z,88.90
2019-05-22T03:20:13.893Z,88.53
2019-05-22T03:23:03.485Z,89.30
2019-05-22T03:25:38.677Z,89.46
2019-05-22T03:28:14.379Z,89.96
2019-05-22T03:30:50.328Z,89.28
2019-05-22T03:33:26.523Z,89.77
2019-05-22T03:36:18.325Z,89.93
2019-05-22T03:38:55.713Z,89.94
2019-05-22T03:41:30.258Z,90.56
2019-05-22T03:44:07.411Z,90.71
2019-05-22T03:46:48.349Z,90.73
2019-05-22T03:49:30.581Z,90.97
2019-05-22T03:51:59.765Z,90.92
2019-05-22T03:54:36.640Z,90.53
2019-05-22T03:57:12.522Z,90.33
2019-05-22T03:59:46.503Z,89.94
2019-05-22T04:02:23.075Z,89.83
2019-05-22T04:04:58.639Z,89.77
2019-05-22T04:07:33.634Z,90.18
2019-05-22T04:10:09.793Z,89.78
2019-05-22T04:12:44.646Z,89.98
2019-05-22T04:15:20.920Z,89.92
2019-05-22T04:17:59.426Z,89.65
2019-05-22T04:20:34.019Z,90.38
2019-05-22T04:23:10.226Z,90.06
2019-05-22T04:25:44.696Z,90.60
2019-05-22T04:28:18.875Z,91.19
2019-05-22T04:30:55.115Z,90.61
2019-05-22T04:33:31.257Z,90.28
2019-05-22T04:36:10.097Z,88.05
2019-05-22T04:38:44.225Z,88.28
2019-05-22T04:41:18.873Z,87.80
2019-05-22T04:43:52.702Z,88.11
2019-05-22T04:46:28.522Z,88.01
2019-05-22T04:49:03.402Z,87.13
2019-05-22T04:51:39.204Z,85.59
2019-05-22T04:54:14.138Z,85.65
2019-05-22T04:56:52.100Z,85.45
2019-05-22T04:59:28.437Z,85.71
2019-05-22T05:02:05.482Z,85.08
2019-05-22T05:04:40.100Z,85.17
2019-05-22T05:07:15.082Z,85.70
2019-05-22T05:09:49.294Z,86.23
2019-05-22T05:12:23.500Z,85.93
2019-05-22T05:14:59.545Z,85.87
2019-05-22T05:17:33.452Z,85.33
2019-05-22T05:20:21.687Z,85.23
2019-05-22T05:22:45.811Z,85.65
2019-05-22T05:25:22.700Z,85.68
2019-05-22T05:27:59.304Z,85.92
2019-05-22T05:30:34.414Z,85.97
2019-05-22T05:33:08.681Z,87.22
2019-05-22T05:35:42.672Z,88.08
2019-05-22T05:38:18.456Z,88.50
2019-05-22T05:40:53.616Z,88.40
2019-05-22T05:43:29.336Z,88.99
2019-05-22T05:46:03.789Z,88.35
2019-05-22T05:48:40.312Z,88.38
2019-05-22T05:51:27.946Z,87.23
2019-05-22T05:54:11.601Z,87.40
2019-05-22T05:56:51.647Z,88.16
2019-05-22T05:59:27.875Z,87.73
2019-05-22T06:02:02.208Z,88.08
2019-05-22T06:04:39.940Z,88.44
2019-05-22T06:07:39.678Z,88.68
2019-05-22T06:11:14.962Z,88.71
2019-05-22T06:13:49.044Z,87.99
2019-05-22T06:17:26.509Z,87.66
2019-05-22T06:20:04.365Z,88.37
2019-05-22T06:22:39.233Z,88.47
2019-05-22T06:25:14.417Z,86.98
2019-05-22T06:27:53.812Z,87.41
2019-05-22T06:30:46.777Z,86.74
2019-05-22T06:33:46.759Z,87.20
2019-05-22T06:36:22.814Z,87.06
2019-05-22T06:39:07.884Z,88.14
2019-05-22T06:41:43.962Z,88.91
2019-05-22T06:44:37.819Z,89.53
2019-05-22T06:47:23.796Z,90.22
2019-05-22T06:49:58.731Z,89.80
2019-05-22T06:52:32.900Z,90.42
2019-05-22T06:55:07.643Z,90.15
2019-05-22T06:57:42.606Z,89.40
2019-05-22T07:00:25.251Z,88.83
2019-05-22T07:02:59.579Z,87.74
2019-05-22T07:05:34.053Z,87.41
2019-05-22T07:08:10.701Z,87.57
2019-05-22T07:10:45.019Z,86.16
2019-05-22T07:13:20.079Z,85.65
2019-05-22T07:15:55.700Z,84.67
2019-05-22T07:18:32.356Z,83.78
2019-05-22T07:21:08.109Z,82.53
2019-05-22T07:23:42.190Z,81.26
2019-05-22T07:26:16.385Z,80.88
2019-05-22T07:28:50.820Z,81.60
2019-05-22T07:31:25.662Z,81.37
2019-05-22T07:33:59.810Z,83.17
2019-05-22T07:36:37.553Z,83.88
2019-05-22T07:39:12.206Z,84.76
2019-05-22T07:41:47.447Z,85.95
2019-05-22T07:44:22.466Z,86.05
2019-05-22T07:46:58.217Z,86.55
2019-05-22T07:49:32.493Z,87.21
2019-05-22T07:52:08.068Z,86.83
2019-05-22T07:54:43.834Z,86.64
2019-05-22T07:57:23.173Z,87.06
2019-05-22T07:59:58.473Z,86.67
2019-05-22T08:02:41.546Z,85.58
2019-05-22T08:05:16.952Z,84.88
2019-05-22T08:07:51.916Z,83.32
2019-05-22T08:10:31.142Z,82.62
2019-05-22T08:13:05.158Z,82.57
2019-05-22T08:15:39.336Z,82.32
2019-05-22T08:18:15.507Z,81.95
2019-05-22T08:20:49.710Z,82.60
2019-05-22T08:23:25.919Z,82.45
2019-05-22T08:26:00.811Z,81.98
2019-05-22T08:28:37.029Z,81.61
2019-05-22T08:31:16.340Z,81.50
2019-05-22T08:33:51.004Z,81.09
2019-05-22T08:36:25.848Z,81.73
2019-05-22T08:39:04.260Z,81.96
2019-05-22T08:41:44.041Z,80.90
2019-05-22T08:44:18.606Z,81.29
2019-05-22T08:46:54.195Z,81.90
2019-05-22T08:49:28.111Z,81.98
2019-05-22T08:52:02.207Z,84.49
2019-05-22T08:54:37.522Z,85.14
2019-05-22T08:57:14.023Z,86.11
2019-05-22T08:59:48.497Z,86.44
2019-05-22T09:02:23.434Z,85.34
2019-05-22T09:04:59.348Z,84.59
2019-05-22T09:07:33.275Z,84.77
2019-05-22T09:10:09.838Z,83.85
2019-05-22T09:12:43.977Z,83.42
2019-05-22T09:15:18.504Z,83.24
2019-05-22T09:17:52.575Z,83.50
2019-05-22T09:20:26.951Z,83.16
2019-05-22T09:23:02.231Z,83.22
2019-05-22T09:25:36.452Z,83.92
2019-05-22T09:28:11.231Z,82.67
2019-05-22T09:30:45.319Z,83.21
2019-05-22T09:33:19.727Z,83.34
2019-05-22T09:35:54.809Z,83.61
2019-05-22T09:38:29.824Z,84.61
2019-05-22T09:41:04.432Z,84.86
2019-05-22T09:43:39.313Z,84.86
2019-05-22T09:46:14.047Z,84.91
2019-05-22T09:48:47.950Z,84.41
2019-05-22T09:51:22.200Z,83.75
2019-05-22T09:53:58.478Z,83.95
2019-05-22T09:56:34.245Z,84.26
2019-05-22T09:59:08.724Z,83.22
2019-05-22T10:01:43.577Z,81.95
2019-05-22T10:04:17.329Z,82.67
2019-05-22T10:06:51.991Z,82.75
2019-05-22T10:09:26.874Z,82.38
2019-05-22T10:12:01.411Z,81.26
2019-05-22T10:14:36.361Z,79.18
2019-05-22T10:17:13.200Z,77.81
2019-05-22T10:19:49.485Z,77.24
2019-05-22T10:22:24.619Z,76.43
2019-05-22T10:25:15.074Z,76.47
2019-05-22T10:27:34.877Z,76.09
2019-05-22T10:30:12.164Z,75.54
2019-05-22T10:32:47.879Z,76.09
2019-05-22T10:35:25.571Z,76.56
2019-05-22T10:37:59.658Z,76.91
2019-05-22T10:40:34.265Z,77.55
2019-05-22T10:43:08.723Z,78.09
2019-05-22T10:45:46.109Z,77.38
2019-05-22T10:48:21.349Z,76.58
2019-05-22T10:50:56.214Z,76.61
2019-05-22T10:53:34.119Z,75.80
2019-05-22T10:56:09.173Z,75.80
2019-05-22T10:58:45.014Z,75.52
2019-05-22T11:01:19.420Z,75.29
2019-05-22T11:03:53.918Z,75.61
2019-05-22T11:06:28.344Z,75.15
2019-05-22T11:09:02.406Z,75.50
2019-05-22T11:11:38.264Z,76.22
2019-05-22T11:14:14.320Z,75.68
2019-05-22T11:16:50.320Z,76.20
2019-05-22T11:19:24.856Z,77.04
2019-05-22T11:21:59.095Z,76.95
2019-05-22T11:24:33.000Z,75.86
2019-05-22T11:27:07.101Z,75.79
2019-05-22T11:29:42.126Z,76.10
2019-05-22T11:32:18.393Z,76.68
2019-05-22T11:34:53.269Z,75.28
2019-05-22T11:37:26.981Z,75.04
2019-05-22T11:40:01.594Z,73.83
2019-05-22T11:42:35.724Z,72.39
2019-05-22T11:45:12.459Z,70.63
2019-05-22T11:47:46.356Z,68.48
2019-05-22T11:50:22.505Z,67.57
2019-05-22T11:52:56.261Z,67.14
2019-05-22T11:55:43.666Z,68.31
2019-05-22T11:58:08.570Z,67.94
2019-05-22T12:00:44.735Z,67.34
2019-05-22T12:03:20.977Z,67.86
2019-05-22T12:05:56.533Z,67.44
2019-05-22T12:08:32.080Z,67.23
2019-05-22T12:11:07.476Z,67.09
2019-05-22T12:13:42.958Z,66.49
2019-05-22T12:16:17.189Z,68.11
2019-05-22T12:18:51.216Z,67.62
2019-05-22T12:21:26.588Z,67.75
2019-05-22T12:24:00.536Z,66.72
2019-05-22T12:26:34.483Z,65.45
2019-05-22T12:29:08.466Z,64.57
2019-05-22T12:31:43.955Z,63.94
2019-05-22T12:34:20.068Z,64.10
2019-05-22T12:36:55.173Z,63.82
2019-05-22T12:39:30.549Z,63.47
2019-05-22T12:42:06.209Z,63.10
2019-05-22T12:44:40.096Z,62.60
2019-05-22T12:47:15.620Z,63.06
2019-05-22T12:49:50.027Z,62.36
2019-05-22T12:52:24.944Z,61.75
2019-05-22T12:55:00.462Z,61.85
2019-05-22T12:57:35.425Z,61.22
2019-05-22T13:00:11.377Z,61.50
2019-05-22T13:02:48.731Z,61.70
2019-05-22T13:05:24.011Z,60.83
2019-05-22T13:07:58.901Z,62.02
2019-05-22T13:10:34.257Z,61.75
2019-05-22T13:13:09.939Z,61.96
2019-05-22T13:15:44.402Z,61.40
2019-05-22T13:18:24.687Z,59.92
2019-05-22T13:20:58.971Z,59.80
2019-05-22T13:23:39.597Z,60.64
2019-05-22T13:26:13.634Z,60.77
2019-05-22T13:28:50.253Z,60.49
2019-05-22T13:31:24.310Z,60.06
2019-05-22T13:33:59.488Z,59.08
2019-05-22T13:36:33.805Z,57.75
2019-05-22T13:39:09.905Z,57.57
2019-05-22T13:41:44.110Z,57.69
2019-05-22T13:44:18.862Z,58.10
2019-05-22T13:46:53.558Z,58.31
2019-05-22T13:49:30.882Z,58.99
2019-05-22T13:52:06.233Z,58.71
2019-05-22T13:54:41.018Z,59.14
2019-05-22T13:57:16.538Z,57.67
2019-05-22T13:59:50.904Z,58.22
2019-05-22T14:02:28.058Z,57.81
2019-05-22T14:05:02.514Z,57.02
2019-05-22T14:07:36.716Z,56.22
2019-05-22T14:10:11.677Z,55.85
2019-05-22T14:12:48.077Z,55.45
2019-05-22T14:15:24.289Z,55.81
2019-05-22T14:17:59.250Z,54.40
2019-05-22T14:20:33.103Z,54.83
2019-05-22T14:23:07.377Z,54.96
2019-05-22T14:25:44.137Z,55.11
2019-05-22T14:28:19.788Z,54.75
2019-05-22T14:30:54.359Z,54.48
2019-05-22T14:33:29.856Z,54.66
2019-05-22T14:36:06.139Z,54.18
2019-05-22T14:38:41.899Z,53.74
2019-05-22T14:41:16.776Z,54.13
2019-05-22T14:43:50.508Z,54.75
2019-05-22T14:46:24.476Z,54.59
2019-05-22T14:48:58.638Z,55.42
2019-05-22T14:51:33.280Z,54.71
2019-05-22T14:54:08.294Z,54.35
2019-05-22T14:56:44.046Z,54.21
2019-05-22T14:59:19.872Z,54.46
2019-05-22T15:01:55.697Z,53.32
2019-05-22T15:04:30.519Z,53.85
2019-05-22T15:07:04.923Z,53.16
2019-05-22T15:09:38.928Z,52.71
2019-05-22T15:12:13.127Z,53.49
2019-05-22T15:14:47.081Z,53.47
2019-05-22T15:17:32.198Z,53.79
2019-05-22T15:19:57.593Z,54.36
2019-05-22T15:22:34.076Z,53.99
2019-05-22T15:25:10.046Z,53.44
2019-05-22T15:27:46.245Z,54.04
2019-05-22T15:30:21.808Z,54.34
2019-05-22T15:32:57.867Z,55.10
2019-05-22T15:35:33.758Z,54.20
2019-05-22T15:38:10.936Z,52.28
2019-05-22T15:40:46.657Z,53.21
2019-05-22T15:43:21.272Z,52.59
2019-05-22T15:45:56.424Z,52.89
2019-05-22T15:48:33.670Z,52.39
2019-05-22T15:51:10.252Z,50.96
2019-05-22T15:53:47.133Z,51.16
2019-05-22T15:56:22.486Z,50.81
2019-05-22T15:58:58.316Z,50.37
2019-05-22T16:01:37.053Z,51.31
2019-05-22T16:04:15.099Z,50.64
2019-05-22T16:06:51.685Z,52.11
2019-05-22T16:09:29.759Z,52.24
2019-05-22T16:12:06.597Z,51.59
2019-05-22T16:14:42.004Z,51.00
2019-05-22T16:17:18.948Z,51.09
2019-05-22T16:19:54.742Z,51.10
2019-05-22T16:22:31.086Z,51.01
2019-05-22T16:25:06.494Z,49.90
2019-05-22T16:27:43.349Z,50.11
2019-05-22T16:30:18.717Z,50.86
2019-05-22T16:32:56.347Z,51.42
2019-05-22T16:35:31.992Z,51.20
2019-05-22T16:38:08.408Z,51.27
2019-05-22T16:40:45.719Z,51.27
2019-05-22T16:43:22.742Z,50.79
2019-05-22T16:45:57.793Z,51.10
2019-05-22T16:48:33.993Z,49.76
2019-05-22T16:51:12.078Z,49.33
2019-05-22T16:53:53.838Z,49.96
2019-05-22T16:56:29.227Z,50.13
2019-05-22T16:59:05.229Z,48.54
2019-05-22T17:01:56.830Z,48.20
2019-05-22T17:04:16.307Z,48.71
2019-05-22T17:06:50.957Z,50.17
2019-05-22T17:09:28.499Z,50.23
2019-05-22T17:12:06.138Z,50.66
2019-05-22T17:14:40.841Z,50.83
2019-05-22T17:17:18.879Z,51.01
2019-05-22T17:19:53.635Z,51.24
2019-05-22T17:22:29.422Z,51.44
2019-05-22T17:25:05.317Z,51.05
2019-05-22T17:27:41.361Z,51.14
2019-05-22T17:30:23.327Z,52.07
2019-05-22T17:32:59.611Z,51.76
2019-05-22T17:35:35.251Z,50.52
2019-05-22T17:38:10.310Z,51.00
2019-05-22T17:40:45.894Z,51.72
2019-05-22T17:43:24.035Z,51.55
2019-05-22T17:45:59.080Z,52.57
2019-05-22T17:48:35.289Z,52.69
2019-05-22T17:51:10.695Z,52.55
2019-05-22T17:53:46.312Z,52.79
2019-05-22T17:56:20.718Z,53.14
2019-05-22T17:58:54.986Z,53.96
2019-05-22T18:01:29.852Z,54.60
2019-05-22T18:04:04.729Z,55.45
2019-05-22T18:06:41.497Z,56.13
2019-05-22T18:09:16.459Z,56.16
2019-05-22T18:11:53.539Z,56.56
2019-05-22T18:14:28.491Z,56.18
2019-05-22T18:17:04.418Z,56.31
2019-05-22T18:19:38.498Z,57.41
2019-05-22T18:22:15.034Z,57.71
2019-05-22T18:24:49.818Z,57.57
2019-05-22T18:27:25.434Z,58.47
2019-05-22T18:29:59.864Z,58.87
2019-05-22T18:32:38.312Z,59.17
2019-05-22T18:35:24.760Z,59.45
2019-05-22T18:38:04.678Z,59.81
2019-05-22T18:40:38.947Z,60.65
2019-05-22T18:43:18.937Z,61.17
2019-05-22T18:45:53.902Z,61.81
2019-05-22T18:48:33.098Z,61.93
2019-05-22T18:51:09.176Z,62.45
2019-05-22T18:53:43.583Z,62.66
2019-05-22T18:56:20.570Z,63.26
2019-05-22T18:58:57.530Z,63.63
2019-05-22T19:01:37.335Z,63.97
2019-05-22T19:04:15.996Z,64.28
2019-05-22T19:06:55.802Z,64.91
2019-05-22T19:09:32.067Z,65.28
2019-05-22T19:12:09.334Z,65.51
2019-05-22T19:14:47.125Z,65.86
2019-05-22T19:17:22.991Z,66.06
2019-05-22T19:20:41.917Z,66.96
2019-05-22T19:23:16.864Z,67.11
2019-05-22T19:25:53.864Z,68.02
2019-05-22T19:28:42.271Z,68.67
2019-05-22T19:31:04.113Z,68.91
2019-05-22T19:33:40.901Z,69.58
2019-05-22T19:36:16.732Z,70.19
2019-05-22T19:38:52.680Z,70.90
2019-05-22T19:41:29.167Z,71.32
2019-05-22T19:44:03.589Z,72.01
2019-05-22T19:46:39.837Z,72.77
2019-05-22T19:49:14.953Z,73.42
2019-05-22T19:51:51.901Z,73.87
2019-05-22T19:54:26.121Z,74.45
2019-05-22T19:56:59.955Z,75.32
2019-05-22T19:59:35.825Z,75.60
2019-05-22T20:02:12.526Z,76.26
2019-05-22T20:04:47.299Z,76.24
2019-05-22T20:07:22.667Z,76.75
2019-05-22T20:09:58.984Z,77.62
2019-05-22T20:12:34.493Z,77.85
2019-05-22T20:15:10.471Z,78.02
2019-05-22T20:17:44.957Z,78.25
2019-05-22T20:20:21.000Z,78.30
2019-05-22T20:22:55.458Z,78.70
2019-05-22T20:25:31.181Z,78.74
2019-05-22T20:28:08.098Z,79.19
2019-05-22T20:30:44.872Z,79.29
2019-05-22T20:33:20.560Z,79.50
2019-05-22T20:35:56.776Z,80.02
2019-05-22T20:38:32.820Z,80.35
2019-05-22T20:41:08.917Z,81.09
2019-05-22T20:43:50.151Z,81.88
2019-05-22T20:46:25.155Z,82.61
2019-05-22T20:49:02.474Z,82.42
2019-05-22T20:51:38.615Z,82.67
2019-05-22T20:54:15.370Z,83.28
2019-05-22T20:56:53.403Z,83.11
2019-05-22T20:59:32.489Z,83.46
2019-05-22T21:02:08.899Z,84.00
2019-05-22T21:04:44.080Z,84.13
2019-05-22T21:07:23.381Z,84.46
2019-05-22T21:09:58.128Z,84.66
2019-05-22T21:12:35.882Z,85.32
2019-05-22T21:15:10.608Z,85.25
2019-05-22T21:17:45.796Z,85.26
2019-05-22T21:20:23.386Z,85.34
2019-05-22T21:22:57.901Z,85.63
2019-05-22T21:25:32.245Z,85.48
2019-05-22T21:28:06.579Z,86.23
2019-05-22T21:30:41.714Z,86.19
2019-05-22T21:33:16.112Z,86.31
2019-05-22T21:35:51.036Z,86.20
2019-05-22T21:38:27.352Z,86.74
2019-05-22T21:41:01.357Z,86.76
2019-05-22T21:43:35.381Z,86.48
2019-05-22T21:46:12.538Z,86.44
2019-05-22T21:48:48.788Z,86.33
2019-05-22T21:51:24.286Z,86.64
2019-05-22T21:53:59.417Z,86.52
2019-05-22T21:56:34.390Z,86.81
2019-05-22T21:59:09.187Z,86.99
2019-05-22T22:01:59.002Z,86.74
2019-05-22T22:04:37.105Z,86.85
2019-05-22T22:07:14.188Z,87.15
2019-05-22T22:09:50.356Z,87.20
2019-05-22T22:12:25.809Z,87.22
2019-05-22T22:15:00.198Z,87.73
2019-05-22T22:17:38.228Z,87.57
2019-05-22T22:20:13.046Z,87.52
2019-05-22T22:22:49.205Z,87.78
2019-05-22T22:25:25.070Z,87.78
2019-05-22T22:27:58.949Z,87.71
2019-05-22T22:30:42.408Z,87.33
2019-05-22T22:33:19.755Z,86.85
2019-05-22T22:35:56.360Z,87.16
2019-05-22T22:38:31.007Z,87.82
2019-05-22T22:41:07.599Z,87.75
2019-05-22T22:43:43.324Z,88.19
2019-05-22T22:46:30.635Z,88.11
2019-05-22T22:49:06.188Z,88.06
2019-05-22T22:51:41.154Z,88.43
2019-05-22T22:54:16.878Z,88.08
2019-05-22T22:56:50.778Z,88.69
2019-05-22T22:59:25.439Z,88.75
2019-05-22T23:02:01.995Z,88.97
2019-05-22T23:04:38.738Z,88.73
2019-05-22T23:07:15.529Z,88.77
2019-05-22T23:09:50.274Z,88.75
2019-05-22T23:12:26.402Z,88.64
2019-05-22T23:15:02.202Z,88.32
2019-05-22T23:17:39.096Z,88.41
2019-05-22T23:20:10.097Z,88.25
2019-05-22T23:22:41.856Z,88.21
2019-05-22T23:25:19.672Z,88.51
2019-05-22T23:27:56.090Z,88.66
2019-05-22T23:30:31.748Z,88.77
2019-05-22T23:33:06.727Z,89.44
2019-05-22T23:35:41.431Z,89.23
2019-05-22T23:38:17.929Z,89.62
2019-05-22T23:40:52.530Z,90.29
2019-05-22T23:43:28.163Z,89.54
2019-05-22T23:46:04.216Z,91.08
2019-05-22T23:48:41.013Z,90.82
2019-05-22T23:51:16.799Z,90.62
2019-05-22T23:53:50.759Z,90.42
2019-05-22T23:56:26.693Z,90.63
2019-05-22T23:59:04.257Z,91.24
